createdAt,value
2022-08-26T00:01:29.876Z,11.60
2022-08-26T00:03:33.073Z,11.90
2022-08-26T00:05:36.382Z,12.93
2022-08-26T00:07:39.986Z,11.87
2022-08-26T00:09:47.339Z,11.90
2022-08-26T00:11:51.075Z,13.73
2022-08-26T00:13:54.129Z,12.93
2022-08-26T00:15:58.725Z,11.90
2022-08-26T00:18:02.097Z,12.33
2022-08-26T00:20:06.634Z,11.87
2022-08-26T00:22:09.660Z,13.43
2022-08-26T00:24:14.547Z,12.13
2022-08-26T00:26:17.902Z,12.37
2022-08-26T00:28:21.623Z,12.50
2022-08-26T00:30:27.102Z,12.07
2022-08-26T00:32:31.543Z,12.60
2022-08-26T00:34:36.150Z,12.50
2022-08-26T00:36:40.767Z,12.60
2022-08-26T00:38:44.101Z,12.27
2022-08-26T00:40:52.884Z,12.53
2022-08-26T00:42:56.485Z,12.73
2022-08-26T00:44:59.664Z,12.70
2022-08-26T00:47:05.499Z,12.43
2022-08-26T00:49:14.956Z,16.63
2022-08-26T00:51:21.734Z,12.73
2022-08-26T00:53:29.728Z,12.80
2022-08-26T00:55:37.827Z,12.67
2022-08-26T00:57:41.426Z,12.13
2022-08-26T00:59:46.409Z,11.67
2022-08-26T01:01:49.431Z,12.63
2022-08-26T01:03:52.412Z,12.67
2022-08-26T01:05:59.881Z,12.90
2022-08-26T01:08:03.682Z,13.80
2022-08-26T01:10:10.391Z,13.83
2022-08-26T01:12:13.868Z,12.93
2022-08-26T01:14:17.694Z,12.93
2022-08-26T01:16:24.825Z,13.07
2022-08-26T01:18:28.825Z,13.63
2022-08-26T01:20:36.489Z,12.77
2022-08-26T01:22:47.795Z,12.27
2022-08-26T01:24:51.312Z,12.93
2022-08-26T01:26:59.479Z,13.20
2022-08-26T01:29:04.584Z,13.40
2022-08-26T01:31:11.150Z,13.40
2022-08-26T01:33:20.485Z,14.50
2022-08-26T01:35:23.668Z,14.20
2022-08-26T01:37:33.349Z,15.47
2022-08-26T01:39:37.879Z,13.67
2022-08-26T01:41:44.073Z,15.20
2022-08-26T01:43:49.330Z,13.20
2022-08-26T01:45:54.555Z,13.40
2022-08-26T01:47:59.755Z,14.03
2022-08-26T01:50:07.865Z,13.30
2022-08-26T01:52:13.243Z,14.10
2022-08-26T01:54:16.268Z,13.23
2022-08-26T01:56:33.180Z,13.50
2022-08-26T01:58:42.164Z,13.87
2022-08-26T02:00:46.632Z,13.13
2022-08-26T02:02:51.612Z,14.80
2022-08-26T02:04:59.572Z,14.47
2022-08-26T02:07:05.207Z,17.57
2022-08-26T02:09:08.848Z,13.90
2022-08-26T02:11:12.112Z,13.87
2022-08-26T02:13:16.460Z,14.73
2022-08-26T02:15:19.498Z,14.40
2022-08-26T02:17:26.951Z,13.87
2022-08-26T02:19:32.625Z,13.47
2022-08-26T02:21:35.863Z,14.67
2022-08-26T02:23:40.205Z,13.60
2022-08-26T02:25:49.264Z,14.10
2022-08-26T02:27:52.544Z,13.77
2022-08-26T02:29:59.138Z,14.40
2022-08-26T02:32:02.332Z,14.10
2022-08-26T02:34:10.835Z,15.03
2022-08-26T02:36:13.956Z,14.63
2022-08-26T02:38:18.542Z,14.30
2022-08-26T02:40:25.182Z,14.77
2022-08-26T02:42:28.396Z,14.63
2022-08-26T02:44:31.443Z,13.43
2022-08-26T02:46:39.146Z,15.60
2022-08-26T02:48:42.872Z,15.33
2022-08-26T02:50:45.928Z,12.83
2022-08-26T02:52:49.268Z,18.07
2022-08-26T02:54:53.312Z,15.10
2022-08-26T02:56:56.556Z,14.20
2022-08-26T02:59:00.364Z,13.47
2022-08-26T03:01:04.865Z,14.03
2022-08-26T03:03:10.031Z,14.73
2022-08-26T03:05:13.477Z,14.13
2022-08-26T03:07:16.401Z,15.30
2022-08-26T03:09:19.813Z,15.27
2022-08-26T03:11:23.574Z,15.10
2022-08-26T03:13:27.597Z,13.83
2022-08-26T03:15:30.569Z,15.57
2022-08-26T03:17:33.882Z,15.20
2022-08-26T03:19:40.301Z,15.30
2022-08-26T03:21:44.327Z,14.63
2022-08-26T03:23:50.494Z,15.80
2022-08-26T03:25:54.220Z,16.43
2022-08-26T03:27:57.147Z,15.70
2022-08-26T03:30:20.406Z,15.83
2022-08-26T03:32:23.446Z,16.57
2022-08-26T03:34:29.929Z,16.33
2022-08-26T03:36:35.074Z,15.60
2022-08-26T03:38:38.129Z,16.07
2022-08-26T03:40:43.425Z,17.33
2022-08-26T03:42:46.803Z,15.77
2022-08-26T03:44:50.016Z,15.83
2022-08-26T03:46:53.672Z,16.67
2022-08-26T03:48:57.195Z,18.30
2022-08-26T03:51:00.183Z,18.00
2022-08-26T03:53:12.678Z,16.10
2022-08-26T03:55:17.724Z,17.27
2022-08-26T03:57:20.743Z,17.23
2022-08-26T03:59:25.192Z,16.10
2022-08-26T04:01:29.234Z,16.07
2022-08-26T04:03:51.450Z,19.30
2022-08-26T04:05:54.377Z,17.33
2022-08-26T04:07:57.334Z,18.47
2022-08-26T04:10:02.865Z,17.47
2022-08-26T04:12:06.277Z,15.73
2022-08-26T04:14:10.772Z,17.00
2022-08-26T04:16:13.928Z,18.90
2022-08-26T04:18:17.283Z,16.87
2022-08-26T04:20:20.923Z,18.17
2022-08-26T04:22:24.886Z,16.40
2022-08-26T04:24:28.756Z,17.00
2022-08-26T04:26:37.039Z,18.67
2022-08-26T04:28:42.551Z,16.53
2022-08-26T04:30:45.625Z,17.20
2022-08-26T04:32:48.736Z,19.07
2022-08-26T04:34:51.772Z,18.80
2022-08-26T04:36:55.973Z,17.10
2022-08-26T04:39:01.764Z,17.70
2022-08-26T04:41:05.956Z,17.77
2022-08-26T04:43:20.072Z,22.13
2022-08-26T04:45:23.268Z,18.00
2022-08-26T04:47:29.200Z,17.43
2022-08-26T04:49:35.756Z,18.20
2022-08-26T04:51:39.053Z,21.93
2022-08-26T04:53:42.012Z,19.97
2022-08-26T04:55:45.183Z,19.90
2022-08-26T04:57:51.276Z,18.47
2022-08-26T04:59:55.638Z,17.83
2022-08-26T05:01:59.471Z,19.50
2022-08-26T05:04:03.507Z,22.00
2022-08-26T05:06:12.262Z,20.53
2022-08-26T05:08:15.888Z,22.50
2022-08-26T05:10:20.051Z,18.53
2022-08-26T05:12:23.282Z,20.47
2022-08-26T05:14:26.594Z,22.00
2022-08-26T05:16:31.260Z,19.50
2022-08-26T05:18:35.821Z,21.17
2022-08-26T05:20:40.676Z,19.17
2022-08-26T05:22:43.956Z,21.10
2022-08-26T05:24:47.382Z,19.90
2022-08-26T05:26:50.365Z,19.50
2022-08-26T05:28:55.277Z,20.30
2022-08-26T05:30:58.383Z,19.20
2022-08-26T05:33:03.552Z,20.30
2022-08-26T05:35:08.716Z,20.00
2022-08-26T05:37:13.645Z,22.30
2022-08-26T05:39:17.370Z,18.30
2022-08-26T05:41:24.743Z,19.53
2022-08-26T05:43:27.757Z,18.13
2022-08-26T05:45:32.156Z,17.63
2022-08-26T05:47:35.205Z,17.57
2022-08-26T05:49:51.291Z,17.83
2022-08-26T05:51:54.875Z,20.20
2022-08-26T05:53:57.812Z,19.07
2022-08-26T05:56:01.281Z,17.63
2022-08-26T05:58:04.274Z,20.17
2022-08-26T06:00:09.681Z,18.70
2022-08-26T06:02:15.252Z,18.03
2022-08-26T06:04:18.259Z,16.77
2022-08-26T06:06:27.307Z,18.63
2022-08-26T06:08:32.082Z,14.90
2022-08-26T06:10:35.157Z,16.67
2022-08-26T06:12:38.438Z,19.50
2022-08-26T06:14:41.494Z,20.23
2022-08-26T06:16:45.124Z,16.87
2022-08-26T06:18:49.027Z,16.90
2022-08-26T06:20:57.745Z,21.10
2022-08-26T06:23:19.988Z,18.90
2022-08-26T06:25:39.670Z,18.70
2022-08-26T06:27:42.700Z,17.10
2022-08-26T06:29:47.096Z,17.47
2022-08-26T06:31:50.238Z,18.73
2022-08-26T06:33:55.109Z,18.37
2022-08-26T06:35:58.809Z,19.90
2022-08-26T06:38:03.320Z,20.50
2022-08-26T06:40:07.516Z,19.00
2022-08-26T06:42:11.763Z,17.60
2022-08-26T06:44:16.025Z,19.60
2022-08-26T06:46:21.516Z,22.97
2022-08-26T06:48:24.825Z,20.43
2022-08-26T06:50:29.868Z,16.97
2022-08-26T06:52:32.994Z,21.77
2022-08-26T06:54:43.016Z,17.93
2022-08-26T06:56:46.009Z,18.40
2022-08-26T06:58:51.737Z,17.17
2022-08-26T07:00:54.798Z,21.50
2022-08-26T07:02:57.860Z,19.37
2022-08-26T07:05:00.909Z,17.37
2022-08-26T07:07:03.903Z,26.33
2022-08-26T07:09:09.957Z,21.20
2022-08-26T07:11:14.756Z,18.73
2022-08-26T07:13:18.198Z,24.37
2022-08-26T07:15:35.733Z,17.03
2022-08-26T07:17:38.989Z,20.87
2022-08-26T07:19:43.477Z,18.13
2022-08-26T07:21:46.469Z,19.90
2022-08-26T07:23:54.623Z,16.47
2022-08-26T07:26:01.136Z,25.13
2022-08-26T07:28:05.642Z,17.30
2022-08-26T07:30:11.355Z,16.80
2022-08-26T07:32:20.681Z,16.10
2022-08-26T07:34:26.230Z,19.83
2022-08-26T07:36:30.224Z,18.30
2022-08-26T07:38:33.993Z,19.60
2022-08-26T07:40:37.408Z,18.30
2022-08-26T07:42:40.777Z,20.03
2022-08-26T07:44:46.176Z,15.70
2022-08-26T07:46:52.393Z,16.17
2022-08-26T07:48:56.560Z,23.27
2022-08-26T07:50:59.899Z,17.13
2022-08-26T07:53:03.444Z,20.87
2022-08-26T07:55:09.530Z,22.80
2022-08-26T07:57:12.605Z,15.80
2022-08-26T07:59:16.704Z,15.57
2022-08-26T08:01:21.434Z,17.93
2022-08-26T08:03:24.596Z,21.90
2022-08-26T08:05:33.490Z,19.07
2022-08-26T08:07:45.062Z,18.70
2022-08-26T08:09:50.025Z,16.30
2022-08-26T08:11:53.852Z,16.70
2022-08-26T08:13:57.124Z,17.10
2022-08-26T08:16:00.570Z,18.77
2022-08-26T08:18:06.479Z,17.30
2022-08-26T08:20:19.056Z,18.57
2022-08-26T08:22:23.664Z,16.07
2022-08-26T08:24:27.420Z,13.83
2022-08-26T08:26:30.473Z,16.70
2022-08-26T08:28:34.212Z,14.53
2022-08-26T08:30:39.648Z,12.87
2022-08-26T08:32:44.389Z,16.07
2022-08-26T08:34:49.160Z,16.53
2022-08-26T08:36:53.498Z,14.23
2022-08-26T08:38:56.778Z,19.33
2022-08-26T08:41:01.579Z,16.83
2022-08-26T08:43:11.217Z,17.93
2022-08-26T08:45:16.977Z,16.80
2022-08-26T08:47:31.731Z,18.90
2022-08-26T08:49:35.721Z,15.13
2022-08-26T08:51:45.764Z,22.80
2022-08-26T08:53:51.182Z,15.50
2022-08-26T08:56:08.546Z,18.73
2022-08-26T08:58:16.251Z,15.93
2022-08-26T09:00:30.510Z,22.83
2022-08-26T09:02:37.131Z,18.90
2022-08-26T09:05:02.878Z,17.70
2022-08-26T09:07:10.467Z,18.83
2022-08-26T09:09:20.466Z,16.20
2022-08-26T09:11:23.647Z,15.77
2022-08-26T09:13:27.515Z,16.13
2022-08-26T09:15:37.865Z,17.10
2022-08-26T09:17:47.942Z,18.10
2022-08-26T09:19:54.259Z,20.10
2022-08-26T09:21:57.608Z,18.00
2022-08-26T09:24:02.107Z,14.60
2022-08-26T09:26:17.241Z,22.10
2022-08-26T09:28:22.187Z,14.13
2022-08-26T09:30:27.504Z,16.53
2022-08-26T09:32:32.061Z,15.17
2022-08-26T09:34:36.159Z,18.63
2022-08-26T09:36:41.332Z,14.40
2022-08-26T09:38:44.873Z,15.07
2022-08-26T09:40:59.614Z,16.43
2022-08-26T09:43:22.506Z,16.07
2022-08-26T09:45:29.919Z,17.70
2022-08-26T09:47:35.468Z,14.80
2022-08-26T09:49:39.564Z,18.07
2022-08-26T09:51:44.260Z,19.63
2022-08-26T09:53:55.202Z,14.23
2022-08-26T09:56:17.291Z,16.80
2022-08-26T09:58:33.881Z,15.40
2022-08-26T10:00:40.165Z,15.10
2022-08-26T10:02:47.765Z,10.83
2022-08-26T10:04:54.018Z,14.73
2022-08-26T10:06:59.626Z,15.93
2022-08-26T10:09:08.960Z,13.57
2022-08-26T10:11:19.470Z,17.30
2022-08-26T10:13:29.519Z,9.90
2022-08-26T10:15:41.050Z,10.03
2022-08-26T10:17:56.802Z,10.47
2022-08-26T10:20:03.658Z,7.93
2022-08-26T10:22:14.651Z,8.40
2022-08-26T10:24:22.767Z,10.40
2022-08-26T10:26:32.439Z,9.53
2022-08-26T10:28:41.777Z,11.07
2022-08-26T10:30:51.479Z,14.63
2022-08-26T10:32:58.020Z,12.97
2022-08-26T10:35:01.056Z,11.93
2022-08-26T10:37:16.213Z,14.87
2022-08-26T10:39:23.894Z,13.10
2022-08-26T10:41:33.116Z,9.77
2022-08-26T10:43:40.932Z,13.20
2022-08-26T10:45:48.842Z,13.10
2022-08-26T10:47:58.349Z,10.53
2022-08-26T10:50:03.373Z,11.70
2022-08-26T10:52:16.438Z,12.77
2022-08-26T10:54:25.285Z,12.17
2022-08-26T10:56:41.400Z,14.03
2022-08-26T10:58:55.068Z,10.63
2022-08-26T11:01:22.836Z,14.77
2022-08-26T11:03:32.957Z,13.73
2022-08-26T11:05:35.963Z,13.37
2022-08-26T11:07:41.785Z,13.40
2022-08-26T11:09:47.197Z,12.07
2022-08-26T11:11:52.033Z,11.90
2022-08-26T11:14:05.016Z,15.57
2022-08-26T11:16:11.049Z,12.40
2022-08-26T11:18:55.803Z,13.60
2022-08-26T11:21:00.153Z,12.30
2022-08-26T11:23:38.696Z,13.27
2022-08-26T11:26:35.373Z,14.40
2022-08-26T11:28:39.872Z,11.83
2022-08-26T11:30:57.017Z,11.33
2022-08-26T11:33:01.235Z,9.87
2022-08-26T11:35:06.029Z,10.93
2022-08-26T11:37:15.245Z,14.13
2022-08-26T11:39:21.804Z,10.43
2022-08-26T11:41:29.225Z,9.27
2022-08-26T11:43:33.377Z,10.20
2022-08-26T11:45:38.394Z,9.63
2022-08-26T11:47:42.050Z,13.93
2022-08-26T11:49:46.399Z,14.90
2022-08-26T11:51:49.908Z,8.10
2022-08-26T11:54:09.903Z,13.30
2022-08-26T11:56:18.660Z,10.87
2022-08-26T11:58:25.754Z,10.80
2022-08-26T12:00:33.324Z,11.37
2022-08-26T12:02:37.103Z,8.87
2022-08-26T12:04:42.316Z,10.30
2022-08-26T12:06:48.034Z,10.07
2022-08-26T12:08:51.284Z,9.27
2022-08-26T12:11:05.228Z,9.87
2022-08-26T12:13:21.094Z,12.67
2022-08-26T12:15:24.422Z,13.43
2022-08-26T12:17:28.697Z,15.23
2022-08-26T12:19:33.732Z,14.50
2022-08-26T12:21:37.316Z,13.40
2022-08-26T12:23:46.823Z,11.73
2022-08-26T12:25:51.478Z,14.20
2022-08-26T12:28:04.810Z,13.50
2022-08-26T12:30:12.243Z,15.60
2022-08-26T12:32:19.356Z,15.90
2022-08-26T12:34:22.861Z,11.30
2022-08-26T12:36:31.301Z,13.60
2022-08-26T12:38:36.840Z,10.97
2022-08-26T12:40:43.183Z,12.97
2022-08-26T12:42:46.747Z,13.00
2022-08-26T12:44:59.345Z,14.10
2022-08-26T12:47:04.677Z,17.33
2022-08-26T12:49:07.684Z,12.20
2022-08-26T12:51:21.298Z,10.13
2022-08-26T12:53:26.383Z,11.10
2022-08-26T12:55:37.977Z,11.43
2022-08-26T12:57:40.940Z,10.80
2022-08-26T12:59:44.125Z,13.40
2022-08-26T13:01:49.517Z,13.43
2022-08-26T13:03:52.698Z,12.17
2022-08-26T13:06:09.545Z,13.40
2022-08-26T13:08:26.911Z,13.80
2022-08-26T13:10:35.525Z,12.80
2022-08-26T13:12:38.526Z,11.80
2022-08-26T13:14:41.524Z,11.07
2022-08-26T13:16:45.960Z,15.33
2022-08-26T13:18:51.555Z,16.30
2022-08-26T13:20:54.634Z,13.63
2022-08-26T13:22:59.060Z,12.33
2022-08-26T13:25:02.444Z,15.40
2022-08-26T13:27:07.208Z,14.63
2022-08-26T13:29:11.230Z,12.50
2022-08-26T13:31:15.109Z,14.80
2022-08-26T13:33:21.383Z,14.53
2022-08-26T13:35:25.780Z,19.77
2022-08-26T13:37:34.259Z,14.67
2022-08-26T13:39:39.400Z,14.73
2022-08-26T13:41:43.298Z,15.67
2022-08-26T13:43:46.293Z,14.03
2022-08-26T13:45:49.443Z,12.47
2022-08-26T13:47:52.500Z,14.43
2022-08-26T13:49:55.903Z,15.33
2022-08-26T13:52:00.304Z,14.43
2022-08-26T13:54:03.335Z,21.17
2022-08-26T13:56:10.485Z,15.47
2022-08-26T13:58:14.578Z,12.87
2022-08-26T14:00:18.613Z,19.27
2022-08-26T14:02:22.429Z,15.73
2022-08-26T14:04:26.974Z,17.47
2022-08-26T14:06:30.588Z,15.00
2022-08-26T14:08:35.131Z,19.40
2022-08-26T14:10:38.338Z,12.53
2022-08-26T14:12:41.374Z,16.47
2022-08-26T14:14:44.361Z,14.10
2022-08-26T14:16:58.895Z,13.87
2022-08-26T14:19:03.687Z,16.70
2022-08-26T14:21:07.677Z,18.60
2022-08-26T14:23:13.907Z,15.87
2022-08-26T14:25:25.600Z,17.67
2022-08-26T14:27:29.299Z,15.93
2022-08-26T14:29:32.307Z,15.93
2022-08-26T14:31:35.727Z,16.60
2022-08-26T14:33:39.130Z,14.03
2022-08-26T14:35:48.012Z,16.40
2022-08-26T14:37:53.530Z,13.10
2022-08-26T14:39:56.808Z,18.47
2022-08-26T14:42:01.303Z,15.87
2022-08-26T14:44:07.639Z,11.50
2022-08-26T14:46:10.697Z,16.70
2022-08-26T14:48:14.097Z,16.07
2022-08-26T14:50:20.864Z,16.27
2022-08-26T14:52:23.951Z,14.80
2022-08-26T14:54:26.370Z,18.50
2022-08-26T14:56:31.402Z,12.63
2022-08-26T14:58:35.794Z,19.33
2022-08-26T15:00:39.220Z,15.77
2022-08-26T15:02:42.323Z,12.17
2022-08-26T15:04:45.540Z,14.17
2022-08-26T15:06:48.930Z,14.87
2022-08-26T15:08:51.963Z,14.40
2022-08-26T15:10:54.992Z,21.07
2022-08-26T15:12:58.012Z,14.70
2022-08-26T15:15:04.481Z,15.10
2022-08-26T15:17:07.498Z,13.50
2022-08-26T15:19:10.727Z,13.47
2022-08-26T15:21:13.800Z,13.93
2022-08-26T15:23:17.602Z,10.80
2022-08-26T15:25:20.929Z,14.37
2022-08-26T15:27:23.972Z,16.10
2022-08-26T15:29:27.100Z,15.20
2022-08-26T15:31:32.934Z,12.03
2022-08-26T15:33:36.729Z,19.17
2022-08-26T15:35:40.404Z,16.10
2022-08-26T15:37:46.068Z,13.33
2022-08-26T15:39:49.261Z,13.60
2022-08-26T15:41:52.330Z,15.80
2022-08-26T15:43:55.303Z,17.00
2022-08-26T15:45:58.570Z,10.37
2022-08-26T15:48:03.431Z,18.70
2022-08-26T15:50:07.645Z,15.37
2022-08-26T15:52:10.655Z,15.13
2022-08-26T15:54:13.934Z,17.40
2022-08-26T15:56:17.176Z,20.23
2022-08-26T15:58:21.219Z,16.13
2022-08-26T16:00:24.234Z,12.37
2022-08-26T16:02:31.744Z,21.40
2022-08-26T16:04:36.668Z,18.00
2022-08-26T16:06:40.582Z,23.37
2022-08-26T16:08:46.207Z,13.27
2022-08-26T16:10:50.804Z,12.80
2022-08-26T16:12:53.866Z,16.50
2022-08-26T16:14:57.356Z,15.00
2022-08-26T16:17:00.373Z,15.67
2022-08-26T16:19:07.393Z,14.43
2022-08-26T16:21:16.006Z,13.53
2022-08-26T16:23:19.918Z,14.07
2022-08-26T16:25:23.396Z,11.27
2022-08-26T16:27:26.556Z,15.03
2022-08-26T16:29:31.823Z,16.57
2022-08-26T16:31:37.182Z,17.73
2022-08-26T16:33:40.624Z,19.33
2022-08-26T16:35:43.987Z,25.67
2022-08-26T16:37:48.360Z,17.57
2022-08-26T16:39:51.432Z,13.73
2022-08-26T16:41:54.468Z,15.83
2022-08-26T16:43:57.725Z,17.90
2022-08-26T16:46:00.879Z,32.97
2022-08-26T16:48:05.129Z,20.63
2022-08-26T16:50:09.504Z,14.83
2022-08-26T16:52:12.910Z,21.47
2022-08-26T16:54:18.575Z,17.30
2022-08-26T16:56:33.498Z,12.50
2022-08-26T16:58:37.302Z,13.67
2022-08-26T17:00:40.290Z,13.67
2022-08-26T17:02:43.439Z,12.57
2022-08-26T17:04:47.215Z,11.90
2022-08-26T17:06:53.545Z,12.53
2022-08-26T17:08:56.531Z,10.83
2022-08-26T17:11:01.457Z,11.90
2022-08-26T17:13:04.646Z,10.33
2022-08-26T17:15:09.447Z,10.23
2022-08-26T17:17:12.464Z,10.20
2022-08-26T17:19:15.498Z,8.10
2022-08-26T17:21:18.499Z,8.30
2022-08-26T17:23:22.104Z,9.37
2022-08-26T17:25:27.372Z,7.80
2022-08-26T17:27:31.752Z,8.07
2022-08-26T17:29:35.060Z,9.77
2022-08-26T17:31:38.228Z,7.20
2022-08-26T17:33:41.551Z,7.77
2022-08-26T17:35:44.616Z,8.37
2022-08-26T17:37:47.778Z,8.93
2022-08-26T17:39:50.844Z,10.57
2022-08-26T17:41:53.890Z,8.50
2022-08-26T17:43:58.283Z,9.23
2022-08-26T17:46:07.266Z,14.70
2022-08-26T17:48:11.683Z,15.80
2022-08-26T17:50:16.995Z,8.97
2022-08-26T17:52:20.101Z,9.80
2022-08-26T17:54:23.050Z,7.10
2022-08-26T17:56:27.996Z,11.70
2022-08-26T17:58:30.956Z,11.60
2022-08-26T18:00:39.107Z,11.87
2022-08-26T18:02:42.208Z,12.20
2022-08-26T18:04:45.457Z,13.63
2022-08-26T18:06:48.441Z,11.63
2022-08-26T18:08:51.612Z,11.03
2022-08-26T18:10:56.632Z,12.00
2022-08-26T18:12:59.716Z,9.13
2022-08-26T18:15:03.258Z,8.20
2022-08-26T18:17:07.947Z,10.00
2022-08-26T18:19:11.751Z,8.63
2022-08-26T18:21:17.663Z,8.73
2022-08-26T18:23:20.706Z,9.30
2022-08-26T18:25:23.830Z,9.87
2022-08-26T18:27:26.890Z,9.00
2022-08-26T18:29:30.000Z,9.90
2022-08-26T18:31:33.743Z,9.17
2022-08-26T18:33:38.903Z,9.40
2022-08-26T18:35:42.792Z,8.53
2022-08-26T18:37:46.005Z,12.70
2022-08-26T18:39:49.018Z,10.00
2022-08-26T18:41:53.240Z,10.83
2022-08-26T18:43:57.411Z,9.63
2022-08-26T18:46:04.909Z,9.40
2022-08-26T18:48:08.090Z,11.00
2022-08-26T18:50:12.756Z,8.90
2022-08-26T18:52:16.294Z,10.23
2022-08-26T18:56:23.803Z,11.00
2022-08-26T18:58:27.383Z,10.00
2022-08-26T19:00:31.647Z,13.03
2022-08-26T19:02:35.280Z,8.93
2022-08-26T19:04:39.280Z,9.87
2022-08-26T19:06:44.430Z,8.40
2022-08-26T19:08:49.860Z,8.00
2022-08-26T19:10:53.112Z,9.23
2022-08-26T19:13:00.589Z,9.77
2022-08-26T19:15:06.326Z,9.80
2022-08-26T19:17:09.802Z,7.83
2022-08-26T19:19:13.456Z,8.87
2022-08-26T19:21:16.498Z,7.87
2022-08-26T19:23:31.484Z,9.53
2022-08-26T19:25:41.956Z,11.43
2022-08-26T19:27:44.960Z,11.50
2022-08-26T19:29:48.048Z,8.97
2022-08-26T19:31:51.074Z,8.87
2022-08-26T19:33:54.200Z,11.43
2022-08-26T19:35:57.222Z,9.13
2022-08-26T19:38:00.449Z,8.93
2022-08-26T19:40:06.434Z,9.57
2022-08-26T19:42:09.500Z,9.30
2022-08-26T19:44:34.584Z,11.60
2022-08-26T19:48:46.819Z,7.30
2022-08-26T19:50:49.842Z,10.67
2022-08-26T19:52:52.847Z,9.23
2022-08-26T19:54:55.858Z,9.37
2022-08-26T19:57:00.447Z,8.67
2022-08-26T19:59:03.696Z,7.93
2022-08-26T20:01:07.568Z,9.27
2022-08-26T20:03:14.832Z,11.30
2022-08-26T20:05:20.911Z,9.40
2022-08-26T20:07:24.430Z,9.50
2022-08-26T20:09:27.466Z,10.07
2022-08-26T20:11:31.106Z,13.30
2022-08-26T20:13:35.826Z,10.73
2022-08-26T20:15:38.878Z,9.87
2022-08-26T20:17:42.400Z,9.80
2022-08-26T20:20:03.154Z,10.67
2022-08-26T20:22:06.331Z,13.37
2022-08-26T20:24:12.340Z,9.83
2022-08-26T20:26:15.350Z,11.63
2022-08-26T20:28:21.339Z,12.90
2022-08-26T20:30:25.909Z,13.90
2022-08-26T20:32:32.637Z,10.43
2022-08-26T20:34:39.617Z,12.77
2022-08-26T20:36:43.284Z,11.57
2022-08-26T20:38:46.354Z,10.93
2022-08-26T20:40:49.548Z,10.47
2022-08-26T20:42:52.583Z,12.90
2022-08-26T20:44:55.650Z,10.23
2022-08-26T20:47:00.152Z,13.57
2022-08-26T20:49:03.695Z,12.63
2022-08-26T20:51:08.991Z,11.10
2022-08-26T20:53:12.026Z,10.87
2022-08-26T20:55:15.073Z,9.97
2022-08-26T20:57:18.352Z,10.47
2022-08-26T20:59:22.325Z,14.03
2022-08-26T21:01:28.070Z,9.70
2022-08-26T21:03:33.038Z,10.10
2022-08-26T21:05:36.830Z,9.90
2022-08-26T21:07:40.103Z,10.83
2022-08-26T21:09:43.560Z,11.80
2022-08-26T21:11:46.686Z,10.83
2022-08-26T21:14:04.325Z,9.77
2022-08-26T21:16:08.187Z,8.90
2022-08-26T21:18:11.411Z,10.87
2022-08-26T21:20:16.134Z,11.40
2022-08-26T21:22:19.201Z,10.63
2022-08-26T21:24:22.548Z,9.67
2022-08-26T21:26:25.712Z,10.33
2022-08-26T21:28:28.725Z,9.90
2022-08-26T21:30:31.845Z,10.27
2022-08-26T21:32:34.888Z,15.23
2022-08-26T21:34:37.907Z,11.03
2022-08-26T21:36:44.194Z,10.50
2022-08-26T21:38:47.201Z,13.53
2022-08-26T21:40:58.611Z,11.07
2022-08-26T21:43:01.609Z,9.97
2022-08-26T21:45:06.047Z,9.93
2022-08-26T21:47:09.108Z,10.30
2022-08-26T21:49:15.609Z,12.07
2022-08-26T21:51:20.610Z,13.50
2022-08-26T21:53:25.013Z,10.70
2022-08-26T21:55:28.076Z,10.80
2022-08-26T21:57:31.132Z,16.17
2022-08-26T21:59:34.430Z,10.93
2022-08-26T22:01:37.899Z,13.10
2022-08-26T22:03:47.657Z,10.43
2022-08-26T22:05:51.217Z,12.00
2022-08-26T22:07:54.351Z,11.83
2022-08-26T22:09:58.959Z,11.27
2022-08-26T22:12:02.077Z,11.07
2022-08-26T22:14:05.473Z,12.00
2022-08-26T22:16:09.509Z,12.13
2022-08-26T22:18:14.456Z,12.37
2022-08-26T22:20:18.142Z,12.60
2022-08-26T22:22:21.251Z,11.43
2022-08-26T22:24:25.930Z,11.20
2022-08-26T22:26:32.552Z,11.90
2022-08-26T22:28:36.100Z,11.13
2022-08-26T22:30:39.750Z,11.47
2022-08-26T22:32:43.868Z,12.20
2022-08-26T22:34:48.534Z,10.77
2022-08-26T22:36:51.717Z,10.57
2022-08-26T22:38:55.417Z,10.53
2022-08-26T22:41:00.221Z,11.33
2022-08-26T22:43:05.659Z,12.90
2022-08-26T22:45:10.627Z,9.70
2022-08-26T22:47:13.677Z,10.30
2022-08-26T22:49:17.305Z,12.23
2022-08-26T22:51:20.673Z,12.70
2022-08-26T22:53:23.983Z,11.87
2022-08-26T22:55:26.943Z,10.00
2022-08-26T22:57:29.974Z,11.53
2022-08-26T22:59:34.414Z,13.10
2022-08-26T23:01:37.925Z,11.03
2022-08-26T23:03:41.260Z,10.60
2022-08-26T23:05:45.384Z,10.63
2022-08-26T23:07:48.908Z,11.47
2022-08-26T23:09:51.940Z,15.30
2022-08-26T23:11:55.918Z,13.13
2022-08-26T23:13:58.942Z,12.53
2022-08-26T23:16:10.091Z,13.93
2022-08-26T23:18:14.200Z,14.17
2022-08-26T23:20:19.399Z,16.20
2022-08-26T23:22:22.412Z,17.90
2022-08-26T23:24:25.400Z,19.00
2022-08-26T23:26:28.417Z,19.37
2022-08-26T23:28:31.820Z,18.47
2022-08-26T23:30:35.418Z,17.93
2022-08-26T23:32:40.113Z,17.80
2022-08-26T23:34:58.655Z,14.03
2022-08-26T23:37:02.153Z,15.83
2022-08-26T23:39:09.165Z,18.23
2022-08-26T23:41:12.130Z,16.80
2022-08-26T23:43:16.365Z,17.30
2022-08-26T23:45:19.944Z,18.70
2022-08-26T23:47:23.039Z,18.20
2022-08-26T23:49:27.556Z,19.00
2022-08-26T23:51:48.277Z,17.27
2022-08-26T23:53:51.573Z,13.00
2022-08-26T23:55:54.661Z,11.97
2022-08-26T23:57:57.591Z,13.60
